Time;durP1;ratioP1;P1;durP2;ratioP2;P2;SDS_P1;SDS_P2;PMS_P1;PMS_P2;Temp;Humidity;BMP_temperature;BMP_pressure;BME280_temperature;BME280_humidity;BME280_pressure;Samples;Min_cycle;Max_cycle;Signal;HPM_P1;HPM_P2
2022/05/09 00:02:13;;;;;;;;;;;;;;;13.50;45.48;101744.97;4954158;28;97970;-63
2022/05/09 00:04:39;;;;;;;;;;;;;;;13.51;45.43;101739.31;4944296;28;99398;-62
2022/05/09 00:07:05;;;;;;;;;;;;;;;13.54;45.37;101748.00;4939538;28;98884;-63
2022/05/09 00:09:31;;;;;;;;;;;;;;;13.55;45.18;101744.22;4939504;28;127933;-62
2022/05/09 00:11:57;;;;;;;;;;;;;;;13.56;45.12;101743.97;4948544;28;97795;-62
2022/05/09 00:14:23;;;;;;;;;;;;;;;13.59;45.05;101742.63;4951801;28;113236;-62
2022/05/09 00:16:51;;;;;;;;;;;;;;;13.58;45.19;101738.28;4940046;28;126925;-61
2022/05/09 00:19:18;;;;;;;;;;;;;;;13.59;45.14;101739.91;4941325;28;99225;-61
2022/05/09 00:21:44;;;;;;;;;;;;;;;13.61;45.03;101743.19;4939290;28;98409;-62
2022/05/09 00:24:13;;;;;;;;;;;;;;;13.62;44.97;101747.53;4944172;28;97913;-62
2022/05/09 00:26:39;;;;;;;;;;;;;;;13.63;45.16;101749.97;4942810;28;98860;-61
2022/05/09 00:29:06;;;;;;;;;;;;;;;13.64;45.16;101746.22;4942743;28;124117;-62
2022/05/09 00:31:32;;;;;;;;;;;;;;;13.65;44.95;101749.75;4942790;28;97926;-62
2022/05/09 00:33:58;;;;;;;;;;;;;;;13.64;44.98;101751.63;4924865;28;99465;-62
2022/05/09 00:36:24;;;;;;;;;;;;;;;13.64;44.99;101748.94;4957607;28;128259;-63
2022/05/09 00:38:50;;;;;;;;;;;;;;;13.66;44.77;101756.78;4942261;28;119378;-62
2022/05/09 00:41:29;;;;;;;;;;;;;;;13.65;44.75;101755.16;4942108;28;118747;-63
2022/05/09 00:43:55;;;;;;;;;;;;;;;13.63;44.67;101752.69;4945225;28;97837;-62
2022/05/09 00:46:22;;;;;;;;;;;;;;;13.63;44.71;101758.09;4960824;28;98608;-63
2022/05/09 00:48:48;;;;;;;;;;;;;;;13.62;45.10;101767.31;4960895;28;126438;-62
2022/05/09 00:51:15;;;;;;;;;;;;;;;13.61;45.12;101764.88;4961268;28;123867;-62
2022/05/09 00:53:41;;;;;;;;;;;;;;;13.59;44.92;101758.88;4961327;28;97803;-61
2022/05/09 00:56:10;;;;;;;;;;;;;;;13.58;45.14;101765.38;4955406;28;98544;-62
2022/05/09 00:58:58;;;;;;;;;;;;;;;13.56;44.79;101772.94;4957691;28;102482;-64
2022/05/09 01:01:24;;;;;;;;;;;;;;;13.54;44.99;101764.25;4944472;28;97935;-62
2022/05/09 01:04:11;;;;;;;;;;;;;;;13.53;45.00;101765.34;4940236;28;118442;-61
2022/05/09 01:06:38;;;;;;;;;;;;;;;13.50;44.90;101772.88;4949622;28;125811;-62
2022/05/09 01:09:06;;;;;;;;;;;;;;;13.48;45.11;101772.34;4958394;28;98316;-62
2022/05/09 01:11:32;;;;;;;;;;;;;;;13.48;45.12;101761.50;4945970;28;98083;-63
2022/05/09 01:14:03;;;;;;;;;;;;;;;13.47;45.26;101759.03;4961142;28;98022;-63
2022/05/09 01:16:29;;;;;;;;;;;;;;;13.47;44.95;101761.75;4959696;28;124935;-63
2022/05/09 01:18:57;;;;;;;;;;;;;;;13.46;45.36;101769.06;4957166;28;126113;-63
2022/05/09 01:21:37;;;;;;;;;;;;;;;13.45;45.24;101762.00;4966336;28;97990;-62
2022/05/09 01:24:04;;;;;;;;;;;;;;;13.45;45.21;101761.19;4962157;28;98127;-62
2022/05/09 01:26:30;;;;;;;;;;;;;;;13.42;45.37;101767.13;4959140;28;106955;-62
2022/05/09 01:28:59;;;;;;;;;;;;;;;13.39;45.20;101768.44;4958523;28;128166;-62
2022/05/09 01:31:26;;;;;;;;;;;;;;;13.35;45.73;101767.31;4939082;28;126131;-62
2022/05/09 01:33:52;;;;;;;;;;;;;;;13.31;45.71;101759.94;4943790;28;98498;-63
2022/05/09 01:36:21;;;;;;;;;;;;;;;13.28;45.42;101766.69;4960770;28;99061;-61
2022/05/09 01:38:54;;;;;;;;;;;;;;;13.24;45.58;101762.84;4957553;28;127664;-62
2022/05/09 01:41:20;;;;;;;;;;;;;;;13.19;45.52;101763.56;4941468;28;98288;-62
2022/05/09 01:43:51;;;;;;;;;;;;;;;13.16;45.64;101764.06;4943501;28;97676;-63
2022/05/09 01:46:22;;;;;;;;;;;;;;;13.13;45.72;101764.59;4959691;28;99404;-62
2022/05/09 01:51:37;;;;;;;;;;;;;;;13.09;45.93;101766.19;4960219;28;109871;-61
2022/05/09 01:54:03;;;;;;;;;;;;;;;13.08;46.01;101769.13;4961353;28;98123;-61
2022/05/09 01:56:31;;;;;;;;;;;;;;;13.05;46.12;101767.75;4961504;28;99076;-63
2022/05/09 01:58:57;;;;;;;;;;;;;;;13.01;46.22;101770.16;4960446;28;98379;-61
2022/05/09 02:01:23;;;;;;;;;;;;;;;12.97;46.25;101763.59;4947822;28;98530;-62
2022/05/09 02:03:49;;;;;;;;;;;;;;;12.96;46.40;101763.84;4941942;28;115595;-61
2022/05/09 02:06:17;;;;;;;;;;;;;;;12.93;46.42;101769.75;4959042;28;97675;-63
2022/05/09 02:08:43;;;;;;;;;;;;;;;12.89;46.55;101772.16;4942370;28;98307;-61
2022/05/09 02:11:09;;;;;;;;;;;;;;;12.87;46.48;101773.47;4943531;28;102852;-62
2022/05/09 02:13:35;;;;;;;;;;;;;;;12.85;46.50;101778.31;4959932;28;116280;-63
2022/05/09 02:16:01;;;;;;;;;;;;;;;12.82;46.26;101762.59;4939700;28;128447;-61
2022/05/09 02:18:27;;;;;;;;;;;;;;;12.79;46.71;101774.72;4940320;28;124110;-62
2022/05/09 02:20:53;;;;;;;;;;;;;;;12.76;46.63;101775.22;4955445;28;127366;-63
2022/05/09 02:23:19;;;;;;;;;;;;;;;12.71;46.70;101767.84;4957183;28;118492;-62
2022/05/09 02:25:45;;;;;;;;;;;;;;;12.67;46.75;101772.13;4961472;28;98848;-63
2022/05/09 02:28:11;;;;;;;;;;;;;;;12.60;46.93;101774.19;4960935;28;98168;-63
2022/05/09 02:30:40;;;;;;;;;;;;;;;12.55;46.99;101773.31;4946726;28;98970;-63
2022/05/09 02:33:07;;;;;;;;;;;;;;;12.47;46.99;101778.06;4941716;28;97725;-62
2022/05/09 02:35:33;;;;;;;;;;;;;;;12.39;47.43;101766.88;4941341;28;97946;-63
2022/05/09 02:37:59;;;;;;;;;;;;;;;12.34;47.38;101777.59;4955955;28;99692;-62
2022/05/09 02:40:25;;;;;;;;;;;;;;;12.27;47.39;101789.41;4951852;28;98321;-62
2022/05/09 02:42:52;;;;;;;;;;;;;;;12.21;47.75;101782.28;4961169;28;98031;-63
2022/05/09 02:45:18;;;;;;;;;;;;;;;12.15;47.73;101785.97;4947245;28;98317;-62
2022/05/09 02:47:44;;;;;;;;;;;;;;;12.11;47.61;101784.00;4939803;28;98654;-62
2022/05/09 02:50:10;;;;;;;;;;;;;;;12.05;47.95;101788.50;4948536;28;124292;-63
2022/05/09 02:52:37;;;;;;;;;;;;;;;11.97;48.05;101789.72;4961150;28;99614;-62
2022/05/09 02:55:05;;;;;;;;;;;;;;;11.95;48.03;101794.56;4959370;28;99228;-63
2022/05/09 02:57:31;;;;;;;;;;;;;;;11.91;47.95;101784.50;4959675;28;99181;-62
2022/05/09 02:59:56;;;;;;;;;;;;;;;11.87;48.59;101789.56;4954766;28;127607;-62
2022/05/09 03:02:23;;;;;;;;;;;;;;;11.86;48.63;101787.91;4956640;28;98022;-61
2022/05/09 03:04:48;;;;;;;;;;;;;;;11.84;48.69;101789.22;4939844;28;98652;-62
2022/05/09 03:07:16;;;;;;;;;;;;;;;11.82;48.87;101788.59;4937892;28;130423;-63
2022/05/09 03:09:43;;;;;;;;;;;;;;;11.78;48.35;101788.28;4959442;28;98715;-63
2022/05/09 03:12:10;;;;;;;;;;;;;;;11.75;48.94;101784.19;4950976;28;100392;-61
2022/05/09 03:14:36;;;;;;;;;;;;;;;11.75;48.73;101796.84;4943709;28;99205;-63
2022/05/09 03:17:03;;;;;;;;;;;;;;;11.73;49.39;101797.09;4941307;28;98621;-62
2022/05/09 03:19:29;;;;;;;;;;;;;;;11.72;49.18;101794.66;4940245;28;98111;-62
2022/05/09 03:21:55;;;;;;;;;;;;;;;11.71;49.07;101804.66;4942905;28;98158;-62
2022/05/09 03:24:21;;;;;;;;;;;;;;;11.71;48.92;101806.50;4957518;28;107900;-62
2022/05/09 03:26:47;;;;;;;;;;;;;;;11.71;48.98;101809.22;4960164;28;128519;-62
2022/05/09 03:29:14;;;;;;;;;;;;;;;11.71;49.24;101814.59;4953952;28;128295;-62
2022/05/09 03:31:40;;;;;;;;;;;;;;;11.72;49.39;101810.88;4940674;28;98037;-63
2022/05/09 03:34:06;;;;;;;;;;;;;;;11.72;49.37;101813.56;4940550;28;129681;-62
2022/05/09 03:36:33;;;;;;;;;;;;;;;11.73;49.37;101817.91;4940496;28;98207;-63
2022/05/09 03:38:58;;;;;;;;;;;;;;;11.72;49.34;101814.38;4954609;28;97805;-61
2022/05/09 03:41:24;;;;;;;;;;;;;;;11.73;49.63;101807.09;4940655;28;99270;-62
2022/05/09 03:43:50;;;;;;;;;;;;;;;11.73;49.22;101809.81;4946290;28;127915;-62
2022/05/09 03:46:16;;;;;;;;;;;;;;;11.74;49.16;101812.25;4954976;28;99071;-63
2022/05/09 03:48:42;;;;;;;;;;;;;;;11.75;48.99;101821.16;4954163;28;121938;-62
2022/05/09 03:51:08;;;;;;;;;;;;;;;11.74;49.45;101809.53;4940164;28;97864;-62
2022/05/09 03:53:35;;;;;;;;;;;;;;;11.76;49.20;101817.41;4947608;28;127213;-62
2022/05/09 03:56:01;;;;;;;;;;;;;;;11.76;49.15;101812.03;4939678;28;99313;-62
2022/05/09 03:58:27;;;;;;;;;;;;;;;11.75;49.03;101813.06;4940941;28;98909;-63
2022/05/09 04:00:53;;;;;;;;;;;;;;;11.75;49.38;101818.47;4946189;28;99988;-63
2022/05/09 04:03:19;;;;;;;;;;;;;;;11.74;49.59;101820.34;4949896;28;123503;-61
2022/05/09 04:05:45;;;;;;;;;;;;;;;11.74;49.55;101816.84;4942581;28;127402;-63
2022/05/09 04:08:17;;;;;;;;;;;;;;;11.73;49.46;101816.00;4942962;28;127441;-62
2022/05/09 04:10:44;;;;;;;;;;;;;;;11.73;49.28;101813.31;4975651;28;97829;-62
2022/05/09 04:13:10;;;;;;;;;;;;;;;11.74;49.60;101819.53;4947581;28;123816;-63
2022/05/09 04:18:21;;;;;;;;;;;;;;;11.72;49.75;101821.66;4959783;28;97833;-63
2022/05/09 04:20:48;;;;;;;;;;;;;;;11.71;49.79;101820.84;4944566;28;97939;-62
2022/05/09 04:23:15;;;;;;;;;;;;;;;11.74;49.97;101817.66;4957122;28;116201;-62
2022/05/09 04:25:41;;;;;;;;;;;;;;;11.75;49.91;101816.59;4962195;28;97929;-62
2022/05/09 04:28:07;;;;;;;;;;;;;;;11.77;49.64;101824.47;4962128;28;119191;-62
2022/05/09 04:30:35;;;;;;;;;;;;;;;11.78;49.83;101829.59;4947455;28;97734;-63
2022/05/09 04:33:01;;;;;;;;;;;;;;;11.80;49.95;101829.38;4944470;28;99356;-63
2022/05/09 04:35:27;;;;;;;;;;;;;;;11.80;50.08;101827.50;4962626;28;98697;-62
2022/05/09 04:37:54;;;;;;;;;;;;;;;11.84;49.93;101825.16;4962141;28;98421;-63
2022/05/09 04:40:24;;;;;;;;;;;;;;;11.86;49.69;101823.03;4957007;28;98010;-62
2022/05/09 04:42:50;;;;;;;;;;;;;;;11.90;49.92;101829.56;4939067;28;98477;-62
2022/05/09 04:45:17;;;;;;;;;;;;;;;11.92;49.77;101830.16;4938976;28;112456;-62
2022/05/09 04:47:44;;;;;;;;;;;;;;;11.96;49.76;101830.50;4939047;28;98341;-61
2022/05/09 04:50:11;;;;;;;;;;;;;;;12.00;49.40;101835.19;4938891;28;98120;-62
2022/05/09 04:52:36;;;;;;;;;;;;;;;12.05;49.75;101829.03;4938701;28;110810;-62
2022/05/09 04:55:03;;;;;;;;;;;;;;;12.10;49.83;101828.28;4938038;28;127710;-62
2022/05/09 04:57:29;;;;;;;;;;;;;;;12.18;49.48;101825.19;4939159;28;122730;-62
2022/05/09 04:59:55;;;;;;;;;;;;;;;12.24;49.50;101826.94;4945542;28;112996;-62
2022/05/09 05:02:21;;;;;;;;;;;;;;;12.33;49.53;101830.03;4951549;28;127552;-63
2022/05/09 05:04:46;;;;;;;;;;;;;;;12.43;49.32;101835.63;4939276;28;126008;-62
2022/05/09 05:07:12;;;;;;;;;;;;;;;12.55;49.08;101838.22;4945833;28;108502;-62
2022/05/09 05:09:38;;;;;;;;;;;;;;;12.65;48.96;101828.34;4938993;28;117602;-64
2022/05/09 05:12:05;;;;;;;;;;;;;;;12.79;48.83;101828.84;4941230;28;127445;-62
2022/05/09 05:14:30;;;;;;;;;;;;;;;12.93;48.57;101834.69;4954172;28;106209;-63
2022/05/09 05:16:59;;;;;;;;;;;;;;;13.08;48.47;101843.03;4961177;28;128132;-62
2022/05/09 05:19:31;;;;;;;;;;;;;;;13.31;48.18;101838.47;4962370;28;98903;-63
2022/05/09 05:21:57;;;;;;;;;;;;;;;13.54;47.93;101842.81;4960451;28;97970;-62
2022/05/09 05:24:24;;;;;;;;;;;;;;;13.73;47.38;101841.41;4949758;28;99269;-63
2022/05/09 05:26:51;;;;;;;;;;;;;;;13.94;47.41;101848.66;4943642;28;98255;-62
2022/05/09 05:29:17;;;;;;;;;;;;;;;14.15;46.84;101849.69;4953887;28;97923;-62
2022/05/09 05:31:44;;;;;;;;;;;;;;;14.36;46.78;101847.94;4961770;28;98362;-62
2022/05/09 05:34:10;;;;;;;;;;;;;;;14.53;46.35;101855.97;4962203;28;97904;-62
2022/05/09 05:36:36;;;;;;;;;;;;;;;14.72;46.16;101851.75;4950300;28;125579;-62
2022/05/09 05:39:03;;;;;;;;;;;;;;;14.91;45.73;101851.34;4941261;28;117870;-61
2022/05/09 05:41:29;;;;;;;;;;;;;;;15.10;45.67;101847.09;4941762;28;98280;-61
2022/05/09 05:43:55;;;;;;;;;;;;;;;15.32;45.40;101854.22;4941857;28;98727;-61
2022/05/09 05:46:20;;;;;;;;;;;;;;;15.49;45.22;101848.59;4947719;28;128054;-62
2022/05/09 05:48:46;;;;;;;;;;;;;;;15.75;44.72;101857.66;4960024;28;118493;-62
2022/05/09 05:51:14;;;;;;;;;;;;;;;15.94;44.60;101854.16;4960079;28;124948;-62
2022/05/09 05:53:40;;;;;;;;;;;;;;;16.18;44.15;101865.34;4961810;28;98688;-63
2022/05/09 05:56:06;;;;;;;;;;;;;;;16.43;43.75;101855.56;4956016;28;117226;-63
2022/05/09 05:58:33;;;;;;;;;;;;;;;16.69;43.72;101857.16;4941601;28;115816;-62
2022/05/09 06:00:59;;;;;;;;;;;;;;;16.97;43.41;101854.13;4960924;28;98467;-63
2022/05/09 06:03:25;;;;;;;;;;;;;;;17.23;42.88;101847.50;4961702;28;98146;-62
2022/05/09 06:05:51;;;;;;;;;;;;;;;17.53;42.66;101852.00;4944308;28;127670;-62
2022/05/09 06:08:17;;;;;;;;;;;;;;;18.13;41.91;101855.47;4962091;28;97960;-63
2022/05/09 06:10:43;;;;;;;;;;;;;;;18.45;41.65;101854.09;4959826;28;128677;-62
2022/05/09 06:13:09;;;;;;;;;;;;;;;18.93;41.31;101853.38;4958811;28;127989;-62
2022/05/09 06:15:36;;;;;;;;;;;;;;;19.42;41.00;101858.53;4946351;28;98147;-63
2022/05/09 06:18:08;;;;;;;;;;;;;;;19.84;40.63;101857.69;4956914;28;97894;-62
2022/05/09 06:20:35;;;;;;;;;;;;;;;20.21;40.13;101867.00;4950272;28;99293;-63
2022/05/09 06:23:03;;;;;;;;;;;;;;;20.53;39.75;101868.94;4955337;28;98550;-62
2022/05/09 06:25:29;;;;;;;;;;;;;;;20.83;39.27;101875.00;4960578;28;98572;-62
2022/05/09 06:27:55;;;;;;;;;;;;;;;21.12;38.71;101863.72;4942702;28;97783;-63
2022/05/09 06:30:22;;;;;;;;;;;;;;;21.46;38.33;101868.81;4939799;28;127916;-64
2022/05/09 06:32:48;;;;;;;;;;;;;;;21.90;36.82;101871.94;4940941;28;98862;-63
2022/05/09 06:35:20;;;;;;;;;;;;;;;22.37;36.52;101869.75;4942548;28;98175;-63
2022/05/09 06:37:46;;;;;;;;;;;;;;;22.95;36.30;101872.34;4958143;28;97729;-64
2022/05/09 06:40:12;;;;;;;;;;;;;;;23.59;35.09;101871.84;4955364;28;111862;-63
2022/05/09 06:42:38;;;;;;;;;;;;;;;24.93;33.50;101877.38;4951661;28;98348;-63
2022/05/09 06:45:05;;;;;;;;;;;;;;;25.71;32.28;101877.75;4941059;28;97669;-63
2022/05/09 06:47:31;;;;;;;;;;;;;;;26.35;31.11;101871.03;4945595;28;98015;-63
2022/05/09 06:50:00;;;;;;;;;;;;;;;25.89;31.58;101872.94;4941096;28;129420;-64
2022/05/09 06:52:26;;;;;;;;;;;;;;;25.56;31.92;101872.84;4940681;28;122380;-63
2022/05/09 06:54:52;;;;;;;;;;;;;;;25.49;32.19;101869.00;4957128;28;127672;-64
2022/05/09 06:57:18;;;;;;;;;;;;;;;25.45;31.83;101872.41;4951966;28;112146;-62
2022/05/09 06:59:44;;;;;;;;;;;;;;;25.46;31.46;101871.25;4959904;28;113293;-64
2022/05/09 07:02:13;;;;;;;;;;;;;;;25.56;31.59;101870.09;4959587;28;128110;-62
2022/05/09 07:04:39;;;;;;;;;;;;;;;25.68;31.34;101870.16;4959114;28;97843;-64
2022/05/09 07:07:05;;;;;;;;;;;;;;;25.85;31.01;101866.47;4952796;28;118575;-62
2022/05/09 07:09:31;;;;;;;;;;;;;;;26.11;30.47;101865.44;4959121;28;124501;-62
2022/05/09 07:11:57;;;;;;;;;;;;;;;26.42;30.29;101868.53;4957882;28;98699;-62
2022/05/09 07:14:23;;;;;;;;;;;;;;;26.64;29.98;101861.78;4958709;28;124232;-64
2022/05/09 07:16:49;;;;;;;;;;;;;;;26.80;29.60;101861.13;4955633;28;98073;-62
2022/05/09 07:19:16;;;;;;;;;;;;;;;26.93;29.73;101860.00;4944636;28;127322;-62
2022/05/09 07:21:42;;;;;;;;;;;;;;;27.09;29.42;101863.69;4960496;28;98877;-64
2022/05/09 07:24:08;;;;;;;;;;;;;;;27.27;28.83;101863.44;4956630;28;98349;-62
2022/05/09 07:26:35;;;;;;;;;;;;;;;27.47;29.04;101868.06;4950253;28;116626;-63
2022/05/09 07:29:00;;;;;;;;;;;;;;;27.61;28.48;101860.16;4956342;28;117751;-62
2022/05/09 07:31:26;;;;;;;;;;;;;;;27.79;28.23;101857.16;4939218;28;119987;-63
2022/05/09 07:33:52;;;;;;;;;;;;;;;28.06;28.31;101858.28;4944353;28;98046;-64
2022/05/09 07:36:18;;;;;;;;;;;;;;;28.29;28.15;101853.78;4963468;28;97773;-62
2022/05/09 07:38:44;;;;;;;;;;;;;;;28.50;28.19;101861.91;4962897;28;128417;-63
2022/05/09 07:41:10;;;;;;;;;;;;;;;28.66;27.63;101861.94;4957999;28;110991;-64
2022/05/09 07:43:36;;;;;;;;;;;;;;;28.94;27.76;101855.47;4956532;28;98084;-63
2022/05/09 07:46:02;;;;;;;;;;;;;;;29.28;27.33;101854.72;4943711;28;116456;-64
2022/05/09 07:48:29;;;;;;;;;;;;;;;29.66;26.96;101858.75;4946541;28;98357;-62
2022/05/09 07:50:55;;;;;;;;;;;;;;;30.11;27.26;101856.47;4962098;28;98404;-64
2022/05/09 07:53:26;;;;;;;;;;;;;;;30.49;27.06;101853.63;4925644;28;99147;-64
2022/05/09 07:55:52;;;;;;;;;;;;;;;30.81;25.90;101853.38;4960668;28;98364;-64
2022/05/09 07:58:18;;;;;;;;;;;;;;;31.23;26.20;101852.44;4960680;28;128682;-64
2022/05/09 08:00:45;;;;;;;;;;;;;;;31.82;26.08;101855.63;4963579;28;99035;-63
2022/05/09 08:03:31;;;;;;;;;;;;;;;32.44;25.38;101848.38;4962818;28;98584;-63
2022/05/09 08:05:59;;;;;;;;;;;;;;;33.21;24.75;101854.97;4943867;28;97896;-63
2022/05/09 08:08:28;;;;;;;;;;;;;;;33.83;24.60;101850.47;4944114;28;98639;-63
2022/05/09 08:10:58;;;;;;;;;;;;;;;34.50;24.12;101846.25;4960027;28;97842;-63
2022/05/09 08:13:25;;;;;;;;;;;;;;;35.19;23.28;101847.81;4961496;28;97994;-64
2022/05/09 08:15:51;;;;;;;;;;;;;;;35.81;23.00;101850.03;4963163;28;97776;-64
2022/05/09 08:18:18;;;;;;;;;;;;;;;36.43;21.63;101840.00;4961725;28;127983;-65
2022/05/09 08:20:45;;;;;;;;;;;;;;;36.90;21.74;101843.22;4961486;28;98816;-64
2022/05/09 08:23:13;;;;;;;;;;;;;;;37.13;21.32;101845.41;4960114;28;98359;-63
2022/05/09 08:25:42;;;;;;;;;;;;;;;37.68;21.31;101845.16;4963393;28;98005;-64
2022/05/09 08:28:08;;;;;;;;;;;;;;;38.27;20.65;101844.72;4962636;28;98172;-64
2022/05/09 08:30:34;;;;;;;;;;;;;;;38.64;19.87;101842.16;4960220;28;98298;-64
2022/05/09 08:33:05;;;;;;;;;;;;;;;38.82;20.06;101828.56;4948451;28;98662;-63
2022/05/09 08:35:31;;;;;;;;;;;;;;;39.06;20.25;101822.88;4957888;28;113648;-62
2022/05/09 08:37:57;;;;;;;;;;;;;;;39.60;19.85;101826.19;4961904;28;127967;-64
2022/05/09 08:40:32;;;;;;;;;;;;;;;40.27;19.45;101825.91;4961834;28;98958;-61
2022/05/09 08:43:11;;;;;;;;;;;;;;;40.65;18.79;101814.88;4946443;28;98201;-62
2022/05/09 08:45:37;;;;;;;;;;;;;;;40.89;18.21;101817.47;4958340;28;97866;-61
2022/05/09 08:48:15;;;;;;;;;;;;;;;41.12;18.37;101814.41;4960019;28;98527;-64
2022/05/09 08:50:44;;;;;;;;;;;;;;;41.62;17.98;101815.78;4960177;28;99289;-61
2022/05/09 08:53:12;;;;;;;;;;;;;;;42.08;17.99;101818.38;4958354;28;127630;-62
2022/05/09 08:55:40;;;;;;;;;;;;;;;42.30;17.63;101815.66;4960534;28;97923;-61
2022/05/09 08:58:19;;;;;;;;;;;;;;;42.43;17.97;101813.59;4944743;28;102219;-61
2022/05/09 09:00:45;;;;;;;;;;;;;;;42.62;16.98;101815.34;4943582;28;98823;-62
2022/05/09 09:03:30;;;;;;;;;;;;;;;42.67;17.13;101816.81;4960239;28;98158;-61
2022/05/09 09:06:19;;;;;;;;;;;;;;;42.56;16.90;101810.69;4957050;28;97883;-62
2022/05/09 09:08:47;;;;;;;;;;;;;;;42.87;16.40;101816.50;4955246;28;98475;-63
2022/05/09 09:11:45;;;;;;;;;;;;;;;42.18;16.62;101809.53;4944514;28;98432;-62
2022/05/09 09:14:41;;;;;;;;;;;;;;;41.03;17.27;101802.16;4941573;28;98011;-60
2022/05/09 09:17:32;;;;;;;;;;;;;;;40.23;17.61;101806.22;4943450;28;98158;-60
2022/05/09 09:20:48;;;;;;;;;;;;;;;39.92;17.62;101802.13;4942095;28;98435;-61
2022/05/09 09:23:25;;;;;;;;;;;;;;;40.20;16.71;101795.81;4921004;28;98801;-60
2022/05/09 09:26:20;;;;;;;;;;;;;;;40.86;16.81;101796.53;4939126;28;98123;-61
2022/05/09 09:28:53;;;;;;;;;;;;;;;41.56;16.16;101796.97;4942637;28;97846;-60
2022/05/09 09:31:29;;;;;;;;;;;;;;;42.28;15.63;101799.13;4940340;28;98613;-62
2022/05/09 09:33:58;;;;;;;;;;;;;;;42.86;15.26;101801.53;4941564;28;98925;-62
2022/05/09 09:36:26;;;;;;;;;;;;;;;43.10;15.05;101799.06;4957409;28;97969;-61
2022/05/09 09:38:56;;;;;;;;;;;;;;;43.57;15.09;101792.41;4957936;28;117711;-62
2022/05/09 09:41:31;;;;;;;;;;;;;;;43.88;14.47;101783.09;4945977;28;101416;-62
2022/05/09 09:44:18;;;;;;;;;;;;;;;43.95;14.75;101787.69;4961424;28;97926;-62
2022/05/09 09:47:05;;;;;;;;;;;;;;;44.41;14.60;101794.25;4962593;28;97913;-61
2022/05/09 09:49:32;;;;;;;;;;;;;;;44.66;14.41;101781.81;4960956;28;116833;-62
2022/05/09 09:51:58;;;;;;;;;;;;;;;44.78;14.58;101785.75;4955245;28;98663;-62
2022/05/09 09:54:32;;;;;;;;;;;;;;;44.88;13.94;101778.00;4954524;28;128028;-62
2022/05/09 09:57:17;;;;;;;;;;;;;;;44.71;14.16;101778.34;4940472;28;126900;-62
2022/05/09 09:59:43;;;;;;;;;;;;;;;44.91;13.82;101777.81;4950498;28;97915;-61
2022/05/09 10:02:30;;;;;;;;;;;;;;;44.59;13.92;101768.69;4960123;28;127148;-61
2022/05/09 10:04:56;;;;;;;;;;;;;;;44.71;13.91;101769.03;4962021;28;98500;-61
2022/05/09 10:07:28;;;;;;;;;;;;;;;44.57;13.77;101765.53;4961210;28;98434;-61
2022/05/09 10:10:00;;;;;;;;;;;;;;;44.37;13.87;101765.19;4950325;28;98145;-61
2022/05/09 10:12:27;;;;;;;;;;;;;;;44.04;14.12;101757.25;4953629;28;98960;-61
2022/05/09 10:14:53;;;;;;;;;;;;;;;43.99;14.09;101759.94;4959008;28;98585;-62
2022/05/09 10:17:29;;;;;;;;;;;;;;;43.93;13.98;101761.81;4961269;28;97879;-61
2022/05/09 10:19:55;;;;;;;;;;;;;;;43.83;14.04;101758.94;4960592;28;98218;-61
2022/05/09 10:25:15;;;;;;;;;;;;;;;43.69;14.21;101751.00;4951704;28;97808;-61
2022/05/09 10:27:40;;;;;;;;;;;;;;;43.62;14.01;101737.09;4941263;28;98360;-62
2022/05/09 10:30:09;;;;;;;;;;;;;;;43.45;14.30;101747.09;4940351;28;118106;-62
2022/05/09 10:32:35;;;;;;;;;;;;;;;43.38;13.90;101737.59;4946079;28;98973;-62
2022/05/09 10:35:19;;;;;;;;;;;;;;;43.23;14.58;101739.44;4941693;28;99563;-61
2022/05/09 10:37:56;;;;;;;;;;;;;;;42.89;14.53;101740.31;4938735;28;123223;-60
2022/05/09 10:40:35;;;;;;;;;;;;;;;42.58;14.51;101732.53;4940803;28;97858;-61
2022/05/09 10:43:05;;;;;;;;;;;;;;;42.38;14.73;101724.34;4947998;28;123527;-61
2022/05/09 10:45:36;;;;;;;;;;;;;;;42.17;14.87;101723.03;4945529;28;98198;-62
2022/05/09 10:48:24;;;;;;;;;;;;;;;41.96;14.72;101720.91;4939256;28;97976;-61
2022/05/09 10:50:59;;;;;;;;;;;;;;;41.70;15.24;101723.00;4941194;28;97914;-62
2022/05/09 10:53:48;;;;;;;;;;;;;;;41.57;14.91;101714.50;4956060;28;98656;-62
2022/05/09 10:56:19;;;;;;;;;;;;;;;41.52;15.17;101706.59;4971871;28;98516;-61
2022/05/09 10:58:59;;;;;;;;;;;;;;;41.35;15.10;101702.28;4957143;28;127013;-61
2022/05/09 11:01:45;;;;;;;;;;;;;;;40.90;15.00;101687.03;4956551;28;99330;-63
2022/05/09 11:04:12;;;;;;;;;;;;;;;40.41;15.51;101681.56;4957861;28;98192;-62
2022/05/09 11:06:56;;;;;;;;;;;;;;;40.07;15.38;101689.72;4960087;28;97875;-62
2022/05/09 11:09:35;;;;;;;;;;;;;;;39.72;15.49;101690.16;4959910;28;98239;-60
2022/05/09 11:12:28;;;;;;;;;;;;;;;39.24;16.39;101683.22;4951637;28;98046;-62
2022/05/09 11:15:21;;;;;;;;;;;;;;;38.86;16.12;101688.44;4956909;28;123249;-60
2022/05/09 11:18:16;;;;;;;;;;;;;;;38.45;16.83;101674.78;4958249;28;122345;-63
2022/05/09 11:21:01;;;;;;;;;;;;;;;38.05;16.91;101678.28;4939865;28;127865;-62
2022/05/09 11:23:43;;;;;;;;;;;;;;;37.80;16.99;101669.44;4952680;28;98074;-60
2022/05/09 11:26:13;;;;;;;;;;;;;;;37.62;17.48;101683.00;4958224;28;98234;-62
2022/05/09 11:29:04;;;;;;;;;;;;;;;37.46;17.49;101663.97;4957931;28;99276;-60
2022/05/09 11:31:42;;;;;;;;;;;;;;;37.36;17.69;101668.50;4952479;28;97996;-60
2022/05/09 11:34:46;;;;;;;;;;;;;;;37.27;17.49;101660.59;4955884;28;97782;-62
2022/05/09 11:37:14;;;;;;;;;;;;;;;37.12;17.65;101673.25;4940543;28;98147;-62
2022/05/09 11:40:06;;;;;;;;;;;;;;;36.95;17.57;101663.84;4940043;28;97864;-62
2022/05/09 11:46:04;;;;;;;;;;;;;;;36.63;17.93;101658.59;4959806;28;98117;-62
2022/05/09 11:48:46;;;;;;;;;;;;;;;36.47;18.12;101650.78;4939218;28;100527;-60
2022/05/09 11:51:40;;;;;;;;;;;;;;;36.26;17.92;101648.94;4954885;28;98474;-62
2022/05/09 11:54:17;;;;;;;;;;;;;;;36.08;18.27;101648.34;4951126;28;125792;-62
2022/05/09 11:56:47;;;;;;;;;;;;;;;35.84;17.65;101645.31;4940531;28;114750;-61
2022/05/09 11:59:29;;;;;;;;;;;;;;;35.76;18.12;101642.97;4958786;28;113755;-60
2022/05/09 12:02:03;;;;;;;;;;;;;;;35.57;18.28;101641.53;4958259;28;98440;-60
2022/05/09 12:04:42;;;;;;;;;;;;;;;35.52;18.66;101637.13;4959666;28;98101;-62
2022/05/09 12:07:26;;;;;;;;;;;;;;;35.53;18.21;101635.13;4957749;28;117664;-60
2022/05/09 12:10:00;;;;;;;;;;;;;;;35.41;18.16;101630.78;4958725;28;98654;-62
2022/05/09 12:12:59;;;;;;;;;;;;;;;35.30;18.72;101633.66;4947641;28;98726;-62
2022/05/09 12:15:24;;;;;;;;;;;;;;;35.11;17.92;101636.97;4938230;28;98075;-62
2022/05/09 12:18:05;;;;;;;;;;;;;;;34.82;18.42;101637.09;4941641;28;98025;-60
2022/05/09 12:20:31;;;;;;;;;;;;;;;34.64;18.70;101633.56;4943192;28;98979;-62
2022/05/09 12:22:57;;;;;;;;;;;;;;;34.50;18.50;101622.41;4956471;28;98383;-62
2022/05/09 12:25:41;;;;;;;;;;;;;;;34.37;19.04;101625.63;4962532;28;103640;-60
2022/05/09 12:28:29;;;;;;;;;;;;;;;34.27;19.18;101620.03;4961844;28;97865;-60
2022/05/09 12:30:59;;;;;;;;;;;;;;;34.15;19.19;101613.69;4962669;28;98886;-60
2022/05/09 12:33:46;;;;;;;;;;;;;;;34.07;19.20;101614.09;4963441;28;98659;-60
2022/05/09 12:36:13;;;;;;;;;;;;;;;33.98;19.13;101605.31;4942705;28;98044;-60
2022/05/09 12:38:44;;;;;;;;;;;;;;;33.85;19.08;101607.69;4943672;28;111067;-61
2022/05/09 12:41:12;;;;;;;;;;;;;;;33.80;18.92;101594.94;4942977;28;99133;-61
2022/05/09 12:43:39;;;;;;;;;;;;;;;33.83;19.22;101593.31;4957540;28;98398;-60
2022/05/09 12:46:07;;;;;;;;;;;;;;;33.81;18.72;101582.53;4956359;28;110151;-60
2022/05/09 12:48:37;;;;;;;;;;;;;;;33.68;19.01;101586.91;4944202;28;99202;-60
2022/05/09 12:51:08;;;;;;;;;;;;;;;33.50;18.70;101588.94;4941108;28;107107;-62
2022/05/09 12:53:34;;;;;;;;;;;;;;;33.45;18.78;101590.94;4957071;28;98679;-60
2022/05/09 12:56:06;;;;;;;;;;;;;;;33.39;18.99;101586.09;4960114;28;98422;-60
2022/05/09 12:58:34;;;;;;;;;;;;;;;33.25;18.90;101575.72;4942870;28;113308;-61
2022/05/09 13:01:14;;;;;;;;;;;;;;;33.22;18.86;101574.50;4952442;28;98716;-60